KGLS/GLS METAR and TAF weather

Enter ICAO airport designator
Station Type Date Time Source
KGLS METAR 2024/04/18 07:52 UTC NOAA

KGLS 180752Z AUTO 14009KT 8SM BKN020 OVC027 23/23 A2993 RMK AO2 SLP135 T02330228


Station Type Date Time Source
KGLS Decoded METAR 2024/04/18 07:52 UTC NOAA

SCHOLES FIELD, TX, United States (KGLS) 29-16N 094-52W 6M
Apr 18, 2024 - 03:52 AM EDT / 2024.04.18 0752 UTC
Wind: from the SE (140 degrees) at 10 MPH (9 KT):0
Visibility: 8 mile(s):0
Sky conditions: overcast
Temperature: 73.9 F (23.3 C)
Dew Point: 73.0 F (22.8 C)
Relative Humidity: 97%
Pressure (altimeter): 29.93 in. Hg (1013 hPa)
ob: KGLS 180752Z AUTO 14009KT 8SM BKN020 OVC027 23/23 A2993 RMK AO2 SLP135 T02330228
cycle: 8

Station Type Date Time Source
KGLS TAF 2024/04/18 21:41 UTC NOAA